Time;durP1;ratioP1;P1;durP2;ratioP2;P2;SDS_P1;SDS_P2;PMS_P1;PMS_P2;Temp;Humidity;BMP_temperature;BMP_pressure;BME280_temperature;BME280_humidity;BME280_pressure;Samples;Min_cycle;Max_cycle;Signal;HPM_P1;HPM_P2
2023/09/09 00:02:03;;;;;;;26.30;23.52;;;;;;;;;;5015807;28;20194;-72
2023/09/09 00:04:28;;;;;;;26.40;23.55;;;;;;;;;;5030118;28;20372;-72
2023/09/09 00:06:55;;;;;;;27.25;23.45;;;;;;;;;;5028720;28;20186;-72
2023/09/09 00:09:21;;;;;;;29.08;25.98;;;;;;;;;;5023362;28;20215;-73
2023/09/09 00:11:46;;;;;;;28.80;25.75;;;;;;;;;;5034723;28;20654;-72
2023/09/09 00:14:12;;;;;;;29.92;24.85;;;;;;;;;;5020320;28;20281;-72
2023/09/09 00:16:37;;;;;;;28.58;25.55;;;;;;;;;;5022470;28;20194;-72
2023/09/09 00:19:03;;;;;;;29.23;24.58;;;;;;;;;;5018584;28;20293;-73
2023/09/09 00:21:29;;;;;;;21.13;18.65;;;;;;;;;;5008592;28;20187;-72
2023/09/09 00:23:55;;;;;;;19.98;17.95;;;;;;;;;;5012781;28;20198;-72
2023/09/09 00:26:20;;;;;;;20.40;18.20;;;;;;;;;;5026308;28;20193;-72
2023/09/09 00:28:45;;;;;;;18.17;16.27;;;;;;;;;;5029756;28;20268;-72
2023/09/09 00:31:11;;;;;;;17.48;15.77;;;;;;;;;;5014199;28;20302;-73
2023/09/09 00:33:36;;;;;;;17.02;15.32;;;;;;;;;;5015767;28;20253;-72
2023/09/09 00:36:02;;;;;;;17.73;15.93;;;;;;;;;;5009747;28;20203;-72
2023/09/09 00:38:28;;;;;;;19.20;17.10;;;;;;;;;;5015696;28;20253;-72
2023/09/09 00:41:21;;;;;;;19.25;17.23;;;;;;;;;;5021453;28;20560;-72
2023/09/09 00:43:46;;;;;;;24.13;20.48;;;;;;;;;;5018995;28;20250;-72
2023/09/09 00:46:15;;;;;;;22.83;20.42;;;;;;;;;;5026800;28;20189;-72
2023/09/09 00:48:41;;;;;;;23.92;21.33;;;;;;;;;;5017295;28;20716;-72
2023/09/09 00:51:10;;;;;;;22.90;20.23;;;;;;;;;;5029876;28;20283;-71
2023/09/09 00:53:35;;;;;;;23.42;21.00;;;;;;;;;;5019898;28;20272;-72
2023/09/09 00:56:03;;;;;;;25.73;22.95;;;;;;;;;;5020174;28;20202;-72
2023/09/09 00:58:30;;;;;;;28.13;24.30;;;;;;;;;;5019315;28;20672;-72
2023/09/09 01:00:56;;;;;;;25.85;23.05;;;;;;;;;;5022699;28;20186;-72
2023/09/09 01:03:22;;;;;;;26.27;23.48;;;;;;;;;;5022392;28;20719;-73
2023/09/09 01:05:47;;;;;;;25.50;22.90;;;;;;;;;;5045637;28;20217;-72
2023/09/09 01:08:24;;;;;;;25.77;23.05;;;;;;;;;;5028129;28;20705;-72
2023/09/09 01:10:49;;;;;;;25.95;21.63;;;;;;;;;;5020364;28;20667;-72
2023/09/09 01:13:14;;;;;;;24.05;21.35;;;;;;;;;;5022175;28;20280;-72
2023/09/09 01:15:40;;;;;;;24.02;21.10;;;;;;;;;;5025374;28;20574;-72
2023/09/09 01:18:06;;;;;;;22.70;20.35;;;;;;;;;;5027010;28;20209;-72
2023/09/09 01:20:35;;;;;;;26.20;21.13;;;;;;;;;;5027874;28;20198;-72
2023/09/09 01:23:00;;;;;;;22.45;19.70;;;;;;;;;;5024768;28;20229;-72
2023/09/09 01:25:26;;;;;;;24.65;19.73;;;;;;;;;;5012141;28;20222;-72
2023/09/09 01:27:51;;;;;;;27.60;23.20;;;;;;;;;;5025532;28;20213;-71
2023/09/09 01:30:17;;;;;;;24.58;21.58;;;;;;;;;;5018975;28;20214;-72
2023/09/09 01:32:42;;;;;;;25.40;22.02;;;;;;;;;;5025490;28;20517;-72
2023/09/09 01:35:08;;;;;;;27.65;21.25;;;;;;;;;;5029868;28;20226;-73
2023/09/09 01:37:33;;;;;;;26.20;23.55;;;;;;;;;;5029623;28;20186;-72
2023/09/09 01:40:09;;;;;;;25.05;22.30;;;;;;;;;;5024165;28;20197;-72
2023/09/09 01:42:34;;;;;;;29.55;25.30;;;;;;;;;;5024861;28;20189;-72
2023/09/09 01:45:00;;;;;;;28.10;25.08;;;;;;;;;;5018900;28;20233;-73
2023/09/09 01:47:25;;;;;;;27.77;24.80;;;;;;;;;;5027580;28;20198;-72
2023/09/09 01:49:51;;;;;;;28.33;24.75;;;;;;;;;;5027554;28;20351;-72
2023/09/09 01:52:16;;;;;;;30.48;26.67;;;;;;;;;;5026800;28;20194;-72
2023/09/09 01:54:41;;;;;;;33.53;26.45;;;;;;;;;;5026702;28;20654;-72
2023/09/09 01:57:07;;;;;;;28.83;25.50;;;;;;;;;;5018904;28;20198;-72
2023/09/09 01:59:32;;;;;;;28.10;25.10;;;;;;;;;;5011327;28;20728;-72
2023/09/09 02:01:57;;;;;;;30.92;24.70;;;;;;;;;;5014436;28;20218;-72
2023/09/09 02:04:23;;;;;;;27.88;24.90;;;;;;;;;;5032932;28;20526;-72
2023/09/09 02:06:48;;;;;;;25.75;23.05;;;;;;;;;;5027152;28;20244;-72
2023/09/09 02:09:14;;;;;;;27.58;23.40;;;;;;;;;;5025052;28;20214;-72
2023/09/09 02:11:39;;;;;;;23.88;21.33;;;;;;;;;;5015834;28;20191;-72
2023/09/09 02:14:04;;;;;;;26.42;22.90;;;;;;;;;;5018047;28;20557;-72
2023/09/09 02:16:30;;;;;;;30.95;24.70;;;;;;;;;;5019971;28;20307;-73
2023/09/09 02:18:55;;;;;;;35.60;29.33;;;;;;;;;;5020772;28;20221;-73
2023/09/09 02:21:20;;;;;;;32.83;27.83;;;;;;;;;;5026128;28;20604;-73
2023/09/09 02:23:46;;;;;;;33.22;27.88;;;;;;;;;;5018011;28;20230;-73
2023/09/09 02:26:11;;;;;;;37.80;32.08;;;;;;;;;;5018971;28;20178;-73
2023/09/09 02:28:37;;;;;;;34.75;30.67;;;;;;;;;;5010724;28;20221;-73
2023/09/09 02:31:02;;;;;;;44.13;31.95;;;;;;;;;;5026693;28;20190;-73
2023/09/09 02:33:27;;;;;;;35.28;29.50;;;;;;;;;;5015676;28;20237;-72
2023/09/09 02:35:53;;;;;;;32.53;28.45;;;;;;;;;;5013266;28;20245;-71
2023/09/09 02:38:18;;;;;;;34.00;29.10;;;;;;;;;;5024974;28;20225;-72
2023/09/09 02:40:43;;;;;;;38.17;30.67;;;;;;;;;;5019618;28;20613;-72
2023/09/09 02:43:10;;;;;;;35.53;28.77;;;;;;;;;;5015579;28;20240;-71
2023/09/09 02:45:37;;;;;;;31.02;27.40;;;;;;;;;;5013849;28;20642;-72
2023/09/09 02:48:02;;;;;;;29.15;24.38;;;;;;;;;;5024670;28;20195;-72
2023/09/09 02:50:28;;;;;;;26.50;23.67;;;;;;;;;;5032664;28;20344;-73
2023/09/09 02:52:53;;;;;;;23.67;20.90;;;;;;;;;;5031248;28;20543;-72
2023/09/09 02:55:18;;;;;;;24.10;21.02;;;;;;;;;;5020971;28;20595;-72
2023/09/09 02:57:50;;;;;;;24.10;21.35;;;;;;;;;;5024988;28;20205;-72
2023/09/09 03:00:16;;;;;;;26.00;21.52;;;;;;;;;;5031720;28;20204;-71
2023/09/09 03:02:44;;;;;;;23.70;21.17;;;;;;;;;;5029445;28;20190;-71
2023/09/09 03:05:10;;;;;;;25.48;20.63;;;;;;;;;;5023560;28;20190;-72
2023/09/09 03:07:36;;;;;;;23.80;21.20;;;;;;;;;;5027402;28;20283;-72
2023/09/09 03:10:01;;;;;;;32.70;21.52;;;;;;;;;;5023831;28;20191;-72
2023/09/09 03:12:27;;;;;;;30.05;23.77;;;;;;;;;;5025679;28;20205;-72
2023/09/09 03:14:52;;;;;;;26.08;23.20;;;;;;;;;;5029091;28;20281;-72
2023/09/09 03:17:18;;;;;;;31.58;23.85;;;;;;;;;;5022967;28;20224;-72
2023/09/09 03:19:44;;;;;;;28.52;24.40;;;;;;;;;;5025287;28;20344;-73
2023/09/09 03:22:09;;;;;;;33.08;26.63;;;;;;;;;;5012114;28;20202;-72
2023/09/09 03:24:35;;;;;;;34.92;27.08;;;;;;;;;;5022109;28;20194;-72
2023/09/09 03:27:00;;;;;;;30.77;25.67;;;;;;;;;;5029250;28;20200;-70
2023/09/09 03:29:25;;;;;;;28.17;24.80;;;;;;;;;;5022853;28;20544;-72
2023/09/09 03:31:51;;;;;;;28.88;24.30;;;;;;;;;;5029907;28;20278;-71
2023/09/09 03:34:16;;;;;;;25.52;22.77;;;;;;;;;;5026819;28;20227;-72
2023/09/09 03:36:42;;;;;;;24.27;21.00;;;;;;;;;;5019158;28;20194;-71
2023/09/09 03:39:08;;;;;;;24.83;22.23;;;;;;;;;;5028107;28;20721;-73
2023/09/09 03:41:33;;;;;;;25.63;21.15;;;;;;;;;;5023588;28;20194;-71
2023/09/09 03:43:59;;;;;;;24.25;21.73;;;;;;;;;;5026408;28;20313;-71
2023/09/09 03:46:24;;;;;;;23.50;21.10;;;;;;;;;;5018151;28;20194;-72
2023/09/09 03:48:50;;;;;;;25.80;21.02;;;;;;;;;;5029622;28;20205;-71
2023/09/09 03:51:15;;;;;;;23.88;21.38;;;;;;;;;;5031198;28;20193;-71
2023/09/09 03:53:41;;;;;;;24.33;21.83;;;;;;;;;;5027123;28;20193;-71
2023/09/09 03:56:06;;;;;;;23.42;21.02;;;;;;;;;;5040859;28;20224;-72
2023/09/09 03:58:32;;;;;;;31.85;27.75;;;;;;;;;;5026195;28;20179;-71
2023/09/09 04:01:08;;;;;;;35.42;28.83;;;;;;;;;;5019778;28;20296;-71
2023/09/09 04:03:35;;;;;;;35.10;29.35;;;;;;;;;;5026929;28;20389;-71
2023/09/09 04:06:06;;;;;;;34.85;30.77;;;;;;;;;;5032022;28;20624;-71
2023/09/09 04:08:32;;;;;;;35.60;28.45;;;;;;;;;;5025707;28;20297;-71
2023/09/09 04:10:58;;;;;;;30.23;26.30;;;;;;;;;;5019876;28;20579;-72
2023/09/09 04:13:23;;;;;;;29.58;26.40;;;;;;;;;;5027443;28;20187;-72
2023/09/09 04:15:49;;;;;;;31.27;25.70;;;;;;;;;;5027292;28;20197;-72
2023/09/09 04:18:15;;;;;;;30.20;25.23;;;;;;;;;;5022666;28;20222;-71
2023/09/09 04:20:40;;;;;;;29.80;25.05;;;;;;;;;;5019455;28;20185;-72
2023/09/09 04:23:06;;;;;;;28.45;24.05;;;;;;;;;;5005557;28;20215;-72
2023/09/09 04:25:31;;;;;;;25.50;21.20;;;;;;;;;;5031858;28;20281;-71
2023/09/09 04:27:56;;;;;;;22.77;20.38;;;;;;;;;;5026830;28;20219;-72
2023/09/09 04:30:22;;;;;;;19.92;17.67;;;;;;;;;;5028846;28;20640;-71
2023/09/09 04:32:47;;;;;;;19.63;17.20;;;;;;;;;;5021351;28;20191;-71
2023/09/09 04:35:13;;;;;;;19.58;17.50;;;;;;;;;;5021434;28;20190;-71
2023/09/09 04:37:38;;;;;;;18.40;16.45;;;;;;;;;;5022148;28;20191;-71
2023/09/09 04:40:05;;;;;;;17.90;16.00;;;;;;;;;;5012293;28;20728;-71
2023/09/09 04:42:32;;;;;;;18.65;16.58;;;;;;;;;;5021774;28;20193;-71
2023/09/09 04:44:57;;;;;;;20.20;16.55;;;;;;;;;;5022483;28;20578;-72
2023/09/09 04:47:23;;;;;;;22.13;18.45;;;;;;;;;;5024015;28;20200;-71
2023/09/09 04:49:48;;;;;;;26.98;22.77;;;;;;;;;;5015117;28;20292;-72
2023/09/09 04:52:13;;;;;;;28.15;24.38;;;;;;;;;;5030335;28;20201;-71
2023/09/09 04:54:39;;;;;;;25.52;22.00;;;;;;;;;;5017375;28;20598;-71
2023/09/09 04:57:04;;;;;;;24.77;22.17;;;;;;;;;;5019647;28;20197;-72
2023/09/09 04:59:30;;;;;;;24.30;20.33;;;;;;;;;;5022537;28;20187;-72
2023/09/09 05:01:55;;;;;;;22.38;19.58;;;;;;;;;;5025224;28;20194;-72
2023/09/09 05:04:20;;;;;;;24.67;20.40;;;;;;;;;;5022804;28;20222;-71
2023/09/09 05:06:46;;;;;;;23.85;18.70;;;;;;;;;;5027771;28;20190;-72
2023/09/09 05:09:11;;;;;;;23.67;19.20;;;;;;;;;;5024021;28;20280;-72
2023/09/09 05:11:36;;;;;;;22.85;20.48;;;;;;;;;;5029582;28;20209;-72
2023/09/09 05:14:02;;;;;;;25.35;21.20;;;;;;;;;;5027248;28;20201;-73
2023/09/09 05:16:29;;;;;;;23.38;19.38;;;;;;;;;;5011416;28;20588;-72
2023/09/09 05:18:54;;;;;;;21.27;19.02;;;;;;;;;;5018664;28;20294;-72
2023/09/09 05:21:20;;;;;;;21.58;19.27;;;;;;;;;;5024756;28;20305;-72
2023/09/09 05:23:45;;;;;;;22.60;19.77;;;;;;;;;;5023404;28;20204;-72
2023/09/09 05:26:10;;;;;;;22.35;19.73;;;;;;;;;;5023770;28;20529;-72
2023/09/09 05:28:36;;;;;;;20.90;18.70;;;;;;;;;;5025345;28;20229;-72
2023/09/09 05:31:06;;;;;;;22.83;19.70;;;;;;;;;;5007469;28;20725;-72
2023/09/09 05:33:31;;;;;;;21.30;18.40;;;;;;;;;;5027891;28;20596;-72
2023/09/09 05:35:56;;;;;;;20.38;18.20;;;;;;;;;;5026425;28;20264;-72
2023/09/09 05:38:22;;;;;;;18.83;16.75;;;;;;;;;;5028422;28;20281;-72
2023/09/09 05:40:47;;;;;;;18.85;16.75;;;;;;;;;;5024390;28;20282;-72
2023/09/09 05:43:13;;;;;;;19.55;17.13;;;;;;;;;;5027785;28;20914;-72
2023/09/09 05:45:38;;;;;;;19.42;17.42;;;;;;;;;;5016484;28;20205;-71
2023/09/09 05:48:04;;;;;;;19.67;17.55;;;;;;;;;;5013640;28;20222;-73
2023/09/09 05:50:29;;;;;;;19.50;17.50;;;;;;;;;;5021109;28;20268;-73
2023/09/09 05:52:55;;;;;;;20.67;18.00;;;;;;;;;;5008920;28;20261;-73
2023/09/09 05:55:20;;;;;;;21.27;18.77;;;;;;;;;;5012178;28;20190;-73
2023/09/09 05:57:45;;;;;;;20.52;18.40;;;;;;;;;;5024762;28;20193;-72
2023/09/09 06:00:11;;;;;;;20.17;18.15;;;;;;;;;;5017971;28;20198;-73
2023/09/09 06:02:36;;;;;;;27.20;22.65;;;;;;;;;;5028087;28;20185;-72
2023/09/09 06:05:02;;;;;;;26.48;23.02;;;;;;;;;;5029242;28;20229;-72
2023/09/09 06:07:27;;;;;;;27.90;23.33;;;;;;;;;;5021467;28;20607;-72
2023/09/09 06:09:53;;;;;;;27.98;23.45;;;;;;;;;;5020108;28;20214;-73
2023/09/09 06:12:18;;;;;;;32.17;25.33;;;;;;;;;;5009471;28;20194;-72
2023/09/09 06:14:43;;;;;;;34.78;28.13;;;;;;;;;;5021294;28;20674;-73
2023/09/09 06:17:09;;;;;;;36.03;28.83;;;;;;;;;;5022706;28;20215;-73
2023/09/09 06:19:34;;;;;;;38.92;31.33;;;;;;;;;;5022341;28;20201;-73
2023/09/09 06:21:59;;;;;;;43.20;31.88;;;;;;;;;;5015171;28;20226;-73
2023/09/09 06:24:27;;;;;;;39.15;32.33;;;;;;;;;;5020330;28;20187;-73
2023/09/09 06:26:52;;;;;;;40.33;33.75;;;;;;;;;;5026516;28;20190;-73
2023/09/09 06:29:18;;;;;;;45.90;34.22;;;;;;;;;;5018736;28;20276;-73
2023/09/09 06:31:43;;;;;;;43.25;35.15;;;;;;;;;;5016825;28;20194;-73
2023/09/09 06:34:10;;;;;;;38.90;33.40;;;;;;;;;;5018426;28;20191;-73
2023/09/09 06:36:36;;;;;;;41.20;34.03;;;;;;;;;;5025512;28;20236;-73
2023/09/09 06:39:02;;;;;;;44.03;33.33;;;;;;;;;;5022672;28;20198;-73
2023/09/09 06:41:28;;;;;;;43.90;36.33;;;;;;;;;;5014356;28;20218;-73
2023/09/09 06:43:53;;;;;;;45.72;36.83;;;;;;;;;;5019230;28;20268;-73
2023/09/09 06:46:19;;;;;;;47.25;37.38;;;;;;;;;;5028207;28;20202;-73
2023/09/09 06:48:44;;;;;;;42.70;37.28;;;;;;;;;;5017605;28;20751;-73
2023/09/09 06:51:10;;;;;;;49.00;38.00;;;;;;;;;;5022509;28;20541;-72
2023/09/09 06:53:35;;;;;;;46.50;38.92;;;;;;;;;;5023602;28;20206;-72
2023/09/09 06:56:01;;;;;;;44.28;36.60;;;;;;;;;;5021318;28;20186;-72
2023/09/09 06:58:26;;;;;;;42.92;35.70;;;;;;;;;;5024718;28;20232;-74
2023/09/09 07:00:52;;;;;;;42.42;36.83;;;;;;;;;;5025134;28;20202;-72
2023/09/09 07:03:19;;;;;;;44.17;37.13;;;;;;;;;;5021807;28;20539;-72
2023/09/09 07:05:44;;;;;;;49.42;36.17;;;;;;;;;;5025132;28;20198;-72
2023/09/09 07:08:10;;;;;;;39.72;32.45;;;;;;;;;;5034526;28;20541;-71
2023/09/09 07:10:35;;;;;;;44.00;35.75;;;;;;;;;;5010102;28;20277;-73
2023/09/09 07:13:00;;;;;;;42.35;36.40;;;;;;;;;;5027407;28;20198;-72
2023/09/09 07:15:26;;;;;;;40.00;34.15;;;;;;;;;;5026875;28;20198;-72
2023/09/09 07:17:51;;;;;;;46.22;35.88;;;;;;;;;;5027772;28;20218;-72
2023/09/09 07:20:16;;;;;;;47.25;37.60;;;;;;;;;;5023326;28;20515;-71
2023/09/09 07:22:42;;;;;;;49.72;36.97;;;;;;;;;;5021722;28;20545;-72
2023/09/09 07:25:08;;;;;;;45.55;36.53;;;;;;;;;;5021707;28;20209;-71
2023/09/09 07:27:34;;;;;;;48.90;38.05;;;;;;;;;;5017035;28;20190;-72
2023/09/09 07:29:59;;;;;;;47.35;36.00;;;;;;;;;;5024237;28;20450;-71
2023/09/09 07:32:25;;;;;;;46.38;38.30;;;;;;;;;;5015968;28;20269;-71
2023/09/09 07:34:50;;;;;;;48.88;37.35;;;;;;;;;;5020980;28;20649;-71
2023/09/09 07:37:17;;;;;;;46.90;38.33;;;;;;;;;;5011800;28;20224;-72
2023/09/09 07:39:46;;;;;;;49.40;38.42;;;;;;;;;;5022319;28;20237;-72
2023/09/09 07:42:15;;;;;;;48.92;40.97;;;;;;;;;;5017026;28;20682;-72
2023/09/09 07:44:42;;;;;;;46.78;40.25;;;;;;;;;;5016352;28;20705;-72
2023/09/09 07:47:08;;;;;;;53.17;42.33;;;;;;;;;;5026641;28;20198;-72
2023/09/09 07:49:34;;;;;;;50.78;38.63;;;;;;;;;;5022019;28;20371;-70
2023/09/09 07:52:00;;;;;;;50.55;41.83;;;;;;;;;;5018268;28;20955;-71
2023/09/09 07:54:25;;;;;;;53.92;41.35;;;;;;;;;;5021346;28;20194;-72
2023/09/09 07:56:51;;;;;;;51.45;40.30;;;;;;;;;;5018257;28;20530;-73
2023/09/09 07:59:16;;;;;;;52.22;41.05;;;;;;;;;;5022165;28;20194;-72
2023/09/09 08:01:43;;;;;;;46.45;40.00;;;;;;;;;;5025573;28;20268;-72
2023/09/09 08:04:09;;;;;;;54.42;39.88;;;;;;;;;;5022084;28;20202;-72
2023/09/09 08:06:34;;;;;;;47.95;40.25;;;;;;;;;;5028486;28;20254;-72
2023/09/09 08:08:59;;;;;;;52.08;42.45;;;;;;;;;;5028872;28;20293;-72
2023/09/09 08:11:25;;;;;;;55.90;41.05;;;;;;;;;;5023761;28;20198;-73
2023/09/09 08:13:50;;;;;;;50.90;40.40;;;;;;;;;;5026748;28;20194;-72
2023/09/09 08:16:15;;;;;;;51.00;41.38;;;;;;;;;;5025833;28;20217;-72
2023/09/09 08:18:41;;;;;;;52.58;41.90;;;;;;;;;;5019386;28;20202;-72
2023/09/09 08:21:06;;;;;;;49.10;40.58;;;;;;;;;;5023811;28;20194;-72
2023/09/09 08:23:32;;;;;;;52.33;41.53;;;;;;;;;;5013220;28;20631;-73
2023/09/09 08:25:57;;;;;;;53.10;42.55;;;;;;;;;;5028584;28;20273;-73
2023/09/09 08:28:23;;;;;;;48.67;41.40;;;;;;;;;;5022179;28;20203;-73
2023/09/09 08:30:48;;;;;;;47.78;39.30;;;;;;;;;;5036790;28;20193;-72
2023/09/09 08:33:14;;;;;;;45.80;38.92;;;;;;;;;;5022847;28;20182;-73
2023/09/09 08:35:39;;;;;;;50.38;41.22;;;;;;;;;;5019544;28;20209;-73
2023/09/09 08:38:04;;;;;;;55.10;41.63;;;;;;;;;;5024533;28;20220;-72
2023/09/09 08:40:35;;;;;;;48.38;40.03;;;;;;;;;;5025143;28;20561;-71
2023/09/09 08:43:15;;;;;;;48.55;41.47;;;;;;;;;;5025056;28;20233;-72
2023/09/09 08:46:15;;;;;;;50.15;41.38;;;;;;;;;;5022240;28;21648;-73
2023/09/09 08:48:42;;;;;;;44.47;38.78;;;;;;;;;;5023783;28;20263;-73
2023/09/09 08:51:13;;;;;;;50.60;39.75;;;;;;;;;;5020300;28;20265;-71
2023/09/09 08:53:43;;;;;;;48.40;37.75;;;;;;;;;;5021402;28;20242;-73
2023/09/09 08:56:10;;;;;;;67.47;41.08;;;;;;;;;;5026303;28;20189;-73
2023/09/09 08:58:36;;;;;;;44.58;37.17;;;;;;;;;;5012208;28;20193;-72
2023/09/09 09:01:02;;;;;;;41.20;34.75;;;;;;;;;;5020323;28;20198;-72
2023/09/09 09:03:28;;;;;;;48.05;38.83;;;;;;;;;;5001644;28;20285;-73
2023/09/09 09:05:54;;;;;;;43.05;35.97;;;;;;;;;;5021766;28;20266;-73
2023/09/09 09:08:20;;;;;;;43.47;37.65;;;;;;;;;;5011736;28;20202;-73
2023/09/09 09:10:47;;;;;;;42.30;36.25;;;;;;;;;;5022809;28;20553;-73
2023/09/09 09:13:15;;;;;;;42.00;36.58;;;;;;;;;;5021484;28;20245;-73
2023/09/09 09:15:42;;;;;;;42.38;36.72;;;;;;;;;;5023449;28;20631;-73
2023/09/09 09:18:10;;;;;;;45.70;38.67;;;;;;;;;;5023815;28;20256;-72
2023/09/09 09:20:38;;;;;;;46.03;39.53;;;;;;;;;;5020996;28;20665;-73
2023/09/09 09:23:05;;;;;;;47.28;39.42;;;;;;;;;;5026123;28;20204;-73
2023/09/09 09:25:41;;;;;;;46.80;38.17;;;;;;;;;;5026904;28;20582;-73
2023/09/09 09:28:07;;;;;;;47.10;37.83;;;;;;;;;;5018976;28;20685;-72
2023/09/09 09:30:33;;;;;;;41.20;34.22;;;;;;;;;;5027364;28;20206;-72
2023/09/09 09:32:59;;;;;;;46.00;37.35;;;;;;;;;;5013011;28;20223;-73
2023/09/09 09:35:29;;;;;;;44.95;36.85;;;;;;;;;;5010738;28;20225;-73
2023/09/09 09:37:59;;;;;;;40.65;36.25;;;;;;;;;;5021604;28;20607;-73
2023/09/09 09:40:26;;;;;;;41.30;35.22;;;;;;;;;;5021505;28;20190;-73
2023/09/09 09:42:52;;;;;;;40.90;34.60;;;;;;;;;;5019502;28;21025;-73
2023/09/09 09:45:22;;;;;;;46.42;36.80;;;;;;;;;;5015326;28;20193;-73
2023/09/09 09:47:47;;;;;;;42.28;36.13;;;;;;;;;;5020580;28;20191;-73
2023/09/09 09:50:22;;;;;;;40.35;34.92;;;;;;;;;;5020327;28;20198;-73
2023/09/09 09:53:02;;;;;;;42.03;34.80;;;;;;;;;;4998637;28;20461;-74
2023/09/09 09:55:29;;;;;;;41.25;36.63;;;;;;;;;;5016095;28;20491;-73
2023/09/09 09:57:56;;;;;;;46.42;36.85;;;;;;;;;;5014253;28;20196;-73
2023/09/09 10:00:23;;;;;;;41.78;35.67;;;;;;;;;;5038135;28;20183;-73
2023/09/09 10:02:54;;;;;;;48.30;37.38;;;;;;;;;;5022225;28;20201;-74
2023/09/09 10:05:22;;;;;;;40.80;35.25;;;;;;;;;;5007630;28;20194;-72
2023/09/09 10:07:52;;;;;;;42.45;35.58;;;;;;;;;;5022511;28;20283;-73
2023/09/09 10:10:21;;;;;;;48.55;37.55;;;;;;;;;;5033189;28;20191;-74
2023/09/09 10:12:51;;;;;;;44.83;36.45;;;;;;;;;;5022771;28;20190;-72
2023/09/09 10:15:19;;;;;;;44.63;35.72;;;;;;;;;;5020822;28;20186;-73
2023/09/09 10:17:46;;;;;;;43.25;34.83;;;;;;;;;;5023449;28;20586;-71
2023/09/09 10:20:11;;;;;;;36.78;30.85;;;;;;;;;;5020671;28;20183;-72
2023/09/09 10:22:39;;;;;;;45.67;36.42;;;;;;;;;;5028809;28;20199;-73
2023/09/09 10:25:07;;;;;;;44.38;35.72;;;;;;;;;;5019911;28;20187;-73
2023/09/09 10:27:34;;;;;;;40.25;33.10;;;;;;;;;;5020298;28;20190;-72
2023/09/09 10:30:00;;;;;;;38.40;31.75;;;;;;;;;;5029747;28;20256;-73
2023/09/09 10:32:28;;;;;;;35.92;30.55;;;;;;;;;;5029025;28;20194;-73
2023/09/09 10:34:54;;;;;;;46.28;36.20;;;;;;;;;;5028443;28;20194;-73
2023/09/09 10:37:21;;;;;;;41.03;36.42;;;;;;;;;;5026384;28;20236;-74
2023/09/09 10:39:48;;;;;;;39.63;34.22;;;;;;;;;;5016443;28;20198;-74
2023/09/09 10:42:15;;;;;;;42.03;32.40;;;;;;;;;;5029224;28;20793;-73
2023/09/09 10:44:40;;;;;;;34.95;28.95;;;;;;;;;;5028968;28;20272;-73
2023/09/09 10:47:08;;;;;;;27.23;23.40;;;;;;;;;;5030251;28;20284;-72
2023/09/09 10:49:33;;;;;;;37.15;26.67;;;;;;;;;;5022227;28;20700;-72
2023/09/09 10:51:59;;;;;;;38.67;29.92;;;;;;;;;;5025539;28;20194;-73
2023/09/09 10:54:26;;;;;;;35.15;27.48;;;;;;;;;;5028313;28;20194;-73
2023/09/09 10:56:54;;;;;;;30.67;24.65;;;;;;;;;;5016398;28;20190;-73
2023/09/09 10:59:29;;;;;;;30.90;25.80;;;;;;;;;;5029969;28;20197;-73
2023/09/09 11:02:25;;;;;;;29.60;23.83;;;;;;;;;;5030175;28;20637;-73
2023/09/09 11:04:59;;;;;;;28.10;24.23;;;;;;;;;;5015072;28;20194;-74
2023/09/09 11:07:38;;;;;;;28.05;21.38;;;;;;;;;;5026330;28;20565;-72
2023/09/09 11:10:06;;;;;;;24.88;20.05;;;;;;;;;;5027455;28;20225;-72
2023/09/09 11:12:31;;;;;;;23.17;20.02;;;;;;;;;;5031673;28;20272;-72
2023/09/09 11:15:06;;;;;;;22.58;15.40;;;;;;;;;;5028445;28;20213;-71
2023/09/09 11:17:33;;;;;;;24.05;20.30;;;;;;;;;;5015310;28;20205;-72
2023/09/09 11:19:59;;;;;;;25.38;18.95;;;;;;;;;;5019018;28;20205;-72
2023/09/09 11:22:25;;;;;;;25.33;19.90;;;;;;;;;;5020010;28;20190;-74
2023/09/09 11:24:51;;;;;;;21.15;16.23;;;;;;;;;;5026482;28;20199;-73
2023/09/09 11:27:17;;;;;;;25.30;18.45;;;;;;;;;;5035548;28;20628;-73
2023/09/09 11:29:52;;;;;;;18.17;15.27;;;;;;;;;;5029103;28;20206;-73
2023/09/09 11:32:25;;;;;;;15.23;11.63;;;;;;;;;;5025305;28;20205;-73
2023/09/09 11:34:52;;;;;;;21.63;14.55;;;;;;;;;;5028786;28;20664;-73
2023/09/09 11:37:17;;;;;;;19.40;16.05;;;;;;;;;;5030998;28;20265;-72
2023/09/09 11:39:44;;;;;;;23.38;17.13;;;;;;;;;;5012542;28;20235;-72
2023/09/09 11:42:10;;;;;;;20.05;14.82;;;;;;;;;;5030193;28;20186;-72
2023/09/09 11:44:41;;;;;;;17.42;15.57;;;;;;;;;;5028369;28;20223;-73
2023/09/09 11:47:08;;;;;;;14.25;10.95;;;;;;;;;;5016563;28;20186;-74
2023/09/09 11:49:33;;;;;;;13.15;10.70;;;;;;;;;;5023784;28;20202;-72
2023/09/09 11:52:00;;;;;;;14.90;12.00;;;;;;;;;;5013164;28;20205;-72
2023/09/09 11:54:26;;;;;;;17.88;13.30;;;;;;;;;;5013107;28;20244;-73
2023/09/09 11:57:06;;;;;;;16.00;12.27;;;;;;;;;;5012535;28;20268;-73
2023/09/09 11:59:41;;;;;;;14.68;12.55;;;;;;;;;;5027696;28;20264;-72
2023/09/09 12:02:07;;;;;;;11.90;9.80;;;;;;;;;;5041811;28;20256;-72
2023/09/09 12:04:32;;;;;;;13.88;10.50;;;;;;;;;;5021409;28;20277;-73
2023/09/09 12:06:58;;;;;;;10.55;9.35;;;;;;;;;;5024324;28;20279;-73
2023/09/09 12:09:23;;;;;;;12.40;11.18;;;;;;;;;;5018303;28;20221;-73
2023/09/09 12:11:49;;;;;;;15.25;13.65;;;;;;;;;;5027833;28;20184;-74
2023/09/09 12:14:15;;;;;;;14.15;11.15;;;;;;;;;;5029102;28;20193;-74
2023/09/09 12:16:45;;;;;;;13.90;12.25;;;;;;;;;;5018319;28;20191;-74
2023/09/09 12:19:16;;;;;;;17.73;13.13;;;;;;;;;;5009572;28;20187;-74
2023/09/09 12:21:46;;;;;;;17.73;15.05;;;;;;;;;;5009520;28;20189;-74
2023/09/09 12:24:11;;;;;;;14.50;12.63;;;;;;;;;;5017778;28;20190;-74
2023/09/09 12:26:37;;;;;;;14.57;12.77;;;;;;;;;;5029343;28;20548;-74
2023/09/09 12:29:10;;;;;;;15.70;12.95;;;;;;;;;;5017591;28;20250;-75
2023/09/09 12:31:57;;;;;;;13.45;12.10;;;;;;;;;;5027011;28;20630;-74
2023/09/09 12:34:24;;;;;;;18.10;14.55;;;;;;;;;;5025888;28;20199;-73
2023/09/09 12:36:54;;;;;;;17.80;15.32;;;;;;;;;;5028270;28;20202;-74
2023/09/09 12:39:30;;;;;;;20.15;17.27;;;;;;;;;;5025655;28;20556;-75
2023/09/09 12:42:06;;;;;;;16.27;13.57;;;;;;;;;;5011631;28;20284;-74
2023/09/09 12:44:52;;;;;;;18.48;14.90;;;;;;;;;;5012575;28;20227;-72
2023/09/09 12:47:24;;;;;;;18.60;16.38;;;;;;;;;;5029479;28;20634;-73
2023/09/09 12:49:50;;;;;;;20.02;15.52;;;;;;;;;;5015893;28;20307;-74
2023/09/09 12:52:16;;;;;;;23.23;15.45;;;;;;;;;;5025226;28;20201;-73
2023/09/09 12:54:41;;;;;;;18.60;16.60;;;;;;;;;;5013358;28;20194;-73
2023/09/09 12:57:07;;;;;;;16.30;14.07;;;;;;;;;;5013599;28;20189;-74
2023/09/09 12:59:32;;;;;;;18.88;14.55;;;;;;;;;;5016052;28;20305;-74
2023/09/09 13:01:58;;;;;;;16.80;13.82;;;;;;;;;;5021388;28;20676;-75
2023/09/09 13:04:24;;;;;;;16.40;13.35;;;;;;;;;;5023330;28;20186;-74
2023/09/09 13:06:50;;;;;;;15.15;13.50;;;;;;;;;;5020935;28;20198;-74
2023/09/09 13:09:15;;;;;;;15.07;13.48;;;;;;;;;;5020604;28;20213;-73
2023/09/09 13:11:40;;;;;;;16.80;15.00;;;;;;;;;;5027719;28;20665;-74
2023/09/09 13:14:06;;;;;;;18.75;16.77;;;;;;;;;;5025952;28;20243;-74
2023/09/09 13:16:31;;;;;;;17.90;16.05;;;;;;;;;;5016912;28;20224;-73
2023/09/09 13:18:56;;;;;;;21.90;16.45;;;;;;;;;;5021521;28;20265;-74
2023/09/09 13:21:22;;;;;;;15.20;13.43;;;;;;;;;;5020791;28;20186;-74
2023/09/09 13:23:47;;;;;;;18.83;14.90;;;;;;;;;;5019751;28;20679;-74
2023/09/09 13:26:13;;;;;;;15.63;13.25;;;;;;;;;;5024574;28;20274;-74
2023/09/09 13:28:38;;;;;;;19.02;14.90;;;;;;;;;;5023774;28;20935;-71
2023/09/09 13:31:03;;;;;;;17.95;16.10;;;;;;;;;;5020153;28;20201;-73
2023/09/09 13:33:29;;;;;;;17.55;15.68;;;;;;;;;;5028377;28;20263;-73
2023/09/09 13:35:54;;;;;;;18.95;15.70;;;;;;;;;;5020652;28;20677;-73
2023/09/09 13:38:20;;;;;;;18.48;13.48;;;;;;;;;;5013770;28;20191;-73
2023/09/09 13:40:45;;;;;;;19.77;15.95;;;;;;;;;;5023581;28;20222;-73
2023/09/09 13:43:10;;;;;;;18.90;14.98;;;;;;;;;;5014239;28;20717;-73
2023/09/09 13:45:36;;;;;;;18.10;15.80;;;;;;;;;;5035699;28;20193;-73
2023/09/09 13:48:02;;;;;;;17.20;14.65;;;;;;;;;;5021787;28;20261;-74
2023/09/09 13:50:27;;;;;;;21.23;17.73;;;;;;;;;;5034286;28;20666;-73
2023/09/09 13:52:53;;;;;;;19.85;16.70;;;;;;;;;;5033824;28;20182;-73
2023/09/09 13:55:18;;;;;;;18.05;15.73;;;;;;;;;;5023896;28;20218;-73
2023/09/09 13:57:44;;;;;;;17.83;14.48;;;;;;;;;;5029918;28;20201;-74
2023/09/09 14:00:09;;;;;;;18.10;15.38;;;;;;;;;;5024996;28;20618;-73
2023/09/09 14:02:35;;;;;;;17.42;13.65;;;;;;;;;;5028490;28;20189;-73
2023/09/09 14:05:00;;;;;;;15.23;13.63;;;;;;;;;;5029651;28;20285;-73
2023/09/09 14:07:26;;;;;;;17.17;14.63;;;;;;;;;;5014169;28;20285;-71
2023/09/09 14:09:51;;;;;;;17.58;14.30;;;;;;;;;;5030287;28;20221;-73
2023/09/09 14:12:16;;;;;;;16.17;14.52;;;;;;;;;;5027293;28;20209;-72
2023/09/09 14:14:42;;;;;;;15.90;13.57;;;;;;;;;;5025168;28;20683;-73